Mc Neal, Arizona
Current Conditions -  °F | °C
As of 5:56 AM on Tuesday 21 Oct 2014 (Local Time) from KDUG Reporting Station
Clear Clear  
Wind Chill: 45°   Ceiling: Unl
Heat Index: 49°   Visibility: 10mi
Dew Point: 46°   Wind: 9mph
Humidity: 90%   Direction: 20°NNE
Pressure: 30.03"   Gusts: NA
Location:  31.4669°N, 109.689°W
Report Text: KDUG 211256Z AUTO 02008KT 10SM CLR 09/08 A3003 RMK AO2 SLP130 T00940078
Loading
Personal Weather Stations






























Interactive Weather Map
Tropical Storm Tracking
New forecast layout! Learn more

10-Day Weather Forecast

Advertisements
Track Severe Weather on mobile